sensor_id;sensor_type;location;lat;lon;timestamp;pressure;altitude;pressure_sealevel;temperature;humidity
43125;BME280;49182;50.788;7.318;2023-03-14T00:00:54;98549.81;;;10.21;80.40
43125;BME280;49182;50.788;7.318;2023-03-14T00:03:20;98559.63;;;10.41;79.12
43125;BME280;49182;50.788;7.318;2023-03-14T00:05:47;98549.59;;;10.51;78.43
43125;BME280;49182;50.788;7.318;2023-03-14T00:08:14;98540.94;;;10.58;78.48
43125;BME280;49182;50.788;7.318;2023-03-14T00:10:41;98555.22;;;10.63;78.02
43125;BME280;49182;50.788;7.318;2023-03-14T00:13:09;98566.22;;;10.67;77.33
43125;BME280;49182;50.788;7.318;2023-03-14T00:15:36;98574.59;;;10.70;76.18
43125;BME280;49182;50.788;7.318;2023-03-14T00:18:02;98576.38;;;10.84;75.46
43125;BME280;49182;50.788;7.318;2023-03-14T00:20:29;98572.09;;;10.83;75.57
43125;BME280;49182;50.788;7.318;2023-03-14T00:22:58;98556.09;;;10.85;75.35
43125;BME280;49182;50.788;7.318;2023-03-14T00:25:25;98565.81;;;10.84;74.88
43125;BME280;49182;50.788;7.318;2023-03-14T00:27:51;98586.13;;;11.05;74.27
43125;BME280;49182;50.788;7.318;2023-03-14T00:30:19;98582.72;;;11.05;73.92
43125;BME280;49182;50.788;7.318;2023-03-14T00:32:46;98542.38;;;10.96;72.51
43125;BME280;49182;50.788;7.318;2023-03-14T00:35:13;98585.78;;;11.29;72.52
43125;BME280;49182;50.788;7.318;2023-03-14T00:37:40;98563.72;;;11.37;71.95
43125;BME280;49182;50.788;7.318;2023-03-14T00:40:08;98561.94;;;11.44;71.91
43125;BME280;49182;50.788;7.318;2023-03-14T00:42:35;98556.72;;;11.51;71.56
43125;BME280;49182;50.788;7.318;2023-03-14T00:45:02;98555.53;;;11.53;71.38
43125;BME280;49182;50.788;7.318;2023-03-14T00:47:30;98554.94;;;11.58;70.76
43125;BME280;49182;50.788;7.318;2023-03-14T00:49:56;98555.19;;;11.63;70.32
43125;BME280;49182;50.788;7.318;2023-03-14T00:52:23;98562.94;;;11.64;70.26
43125;BME280;49182;50.788;7.318;2023-03-14T00:54:49;98561.94;;;11.65;69.70
43125;BME280;49182;50.788;7.318;2023-03-14T00:57:16;98504.63;;;11.45;70.00
43125;BME280;49182;50.788;7.318;2023-03-14T00:59:43;98535.44;;;11.59;69.55
43125;BME280;49182;50.788;7.318;2023-03-14T01:02:09;98560.63;;;11.76;69.01
43125;BME280;49182;50.788;7.318;2023-03-14T01:04:37;98560.25;;;11.86;68.95
43125;BME280;49182;50.788;7.318;2023-03-14T01:07:04;98573.44;;;11.79;68.87
43125;BME280;49182;50.788;7.318;2023-03-14T01:09:31;98567.59;;;11.84;69.07
43125;BME280;49182;50.788;7.318;2023-03-14T01:11:58;98567.34;;;11.79;68.46
43125;BME280;49182;50.788;7.318;2023-03-14T01:14:24;98573.13;;;11.89;68.64
43125;BME280;49182;50.788;7.318;2023-03-14T01:16:51;98544.13;;;11.74;68.27
43125;BME280;49182;50.788;7.318;2023-03-14T01:19:19;98553.50;;;11.77;68.87
43125;BME280;49182;50.788;7.318;2023-03-14T01:21:47;98567.00;;;11.88;69.28
43125;BME280;49182;50.788;7.318;2023-03-14T01:24:13;98553.16;;;11.86;69.59
43125;BME280;49182;50.788;7.318;2023-03-14T01:26:40;98546.81;;;11.81;69.54
43125;BME280;49182;50.788;7.318;2023-03-14T01:29:08;98547.25;;;11.84;69.07
43125;BME280;49182;50.788;7.318;2023-03-14T01:31:37;98533.00;;;11.85;69.01
43125;BME280;49182;50.788;7.318;2023-03-14T01:34:04;98509.63;;;11.61;69.25
43125;BME280;49182;50.788;7.318;2023-03-14T01:36:31;98540.50;;;11.82;69.42
43125;BME280;49182;50.788;7.318;2023-03-14T01:39:01;98548.22;;;11.77;68.99
43125;BME280;49182;50.788;7.318;2023-03-14T01:41:28;98540.50;;;11.82;68.99
43125;BME280;49182;50.788;7.318;2023-03-14T01:43:57;98534.09;;;11.91;68.76
43125;BME280;49182;50.788;7.318;2023-03-14T01:46:32;98547.09;;;11.92;69.34
43125;BME280;49182;50.788;7.318;2023-03-14T01:49:20;98538.94;;;11.87;69.88
43125;BME280;49182;50.788;7.318;2023-03-14T01:51:59;98522.41;;;11.85;69.33
43125;BME280;49182;50.788;7.318;2023-03-14T01:54:32;98527.16;;;11.90;69.33
43125;BME280;49182;50.788;7.318;2023-03-14T01:57:06;98528.75;;;11.84;69.67
43125;BME280;49182;50.788;7.318;2023-03-14T01:59:35;98526.47;;;11.81;70.55
43125;BME280;49182;50.788;7.318;2023-03-14T02:02:05;98521.78;;;11.77;70.48
43125;BME280;49182;50.788;7.318;2023-03-14T02:04:34;98545.94;;;11.73;74.04
43125;BME280;49182;50.788;7.318;2023-03-14T02:07:09;98537.28;;;11.58;76.13
43125;BME280;49182;50.788;7.318;2023-03-14T02:09:43;98531.09;;;11.51;76.69
43125;BME280;49182;50.788;7.318;2023-03-14T02:12:19;98531.44;;;11.42;78.07
43125;BME280;49182;50.788;7.318;2023-03-14T02:14:51;98526.72;;;11.37;77.75
43125;BME280;49182;50.788;7.318;2023-03-14T02:17:29;98523.84;;;11.32;78.36
43125;BME280;49182;50.788;7.318;2023-03-14T02:20:17;98516.31;;;11.29;78.94
43125;BME280;49182;50.788;7.318;2023-03-14T02:22:52;98527.00;;;11.21;79.08
43125;BME280;49182;50.788;7.318;2023-03-14T02:25:26;98493.41;;;10.93;78.26
43125;BME280;49182;50.788;7.318;2023-03-14T02:27:57;98532.78;;;11.10;78.99
43125;BME280;49182;50.788;7.318;2023-03-14T02:30:27;98536.78;;;11.06;79.05
43125;BME280;49182;50.788;7.318;2023-03-14T02:32:56;98532.06;;;11.01;79.66
43125;BME280;49182;50.788;7.318;2023-03-14T02:35:27;98513.09;;;10.91;79.27
43125;BME280;49182;50.788;7.318;2023-03-14T02:38:00;98526.22;;;11.06;78.36
43125;BME280;49182;50.788;7.318;2023-03-14T02:40:33;98462.66;;;10.65;78.45
43125;BME280;49182;50.788;7.318;2023-03-14T02:43:01;98506.59;;;10.93;78.72
43125;BME280;49182;50.788;7.318;2023-03-14T02:45:39;98514.41;;;11.02;78.12
43125;BME280;49182;50.788;7.318;2023-03-14T02:48:13;98514.78;;;10.99;77.72
43125;BME280;49182;50.788;7.318;2023-03-14T02:50:41;98503.22;;;11.00;77.43
43125;BME280;49182;50.788;7.318;2023-03-14T02:53:11;98500.22;;;11.03;77.02
43125;BME280;49182;50.788;7.318;2023-03-14T02:55:38;98496.75;;;11.02;76.61
43125;BME280;49182;50.788;7.318;2023-03-14T02:58:11;98483.84;;;10.92;75.68
43125;BME280;49182;50.788;7.318;2023-03-14T03:00:39;98458.34;;;10.78;75.52
43125;BME280;49182;50.788;7.318;2023-03-14T03:03:08;98472.78;;;10.82;75.29
43125;BME280;49182;50.788;7.318;2023-03-14T03:05:35;98455.75;;;10.64;75.45
43125;BME280;49182;50.788;7.318;2023-03-14T03:08:02;98480.28;;;10.79;75.10
43125;BME280;49182;50.788;7.318;2023-03-14T03:10:30;98483.97;;;10.63;75.26
43125;BME280;49182;50.788;7.318;2023-03-14T03:12:57;98476.28;;;10.68;75.19
43125;BME280;49182;50.788;7.318;2023-03-14T03:15:27;98479.06;;;10.60;75.08
43125;BME280;49182;50.788;7.318;2023-03-14T03:17:55;98443.09;;;10.38;74.57
43125;BME280;49182;50.788;7.318;2023-03-14T03:20:22;98471.91;;;10.54;74.93
43125;BME280;49182;50.788;7.318;2023-03-14T03:22:48;98465.06;;;10.60;74.71
43125;BME280;49182;50.788;7.318;2023-03-14T03:25:16;98465.25;;;10.58;74.70
43125;BME280;49182;50.788;7.318;2023-03-14T03:27:45;98470.34;;;10.60;74.67
43125;BME280;49182;50.788;7.318;2023-03-14T03:30:16;98492.44;;;10.59;73.83
43125;BME280;49182;50.788;7.318;2023-03-14T03:32:44;98462.28;;;10.46;73.76
43125;BME280;49182;50.788;7.318;2023-03-14T03:35:11;98478.84;;;10.62;73.76
43125;BME280;49182;50.788;7.318;2023-03-14T03:37:39;98360.34;;;9.88;73.58
43125;BME280;49182;50.788;7.318;2023-03-14T03:40:07;98489.13;;;10.71;73.36
43125;BME280;49182;50.788;7.318;2023-03-14T03:42:36;98485.75;;;10.77;73.64
43125;BME280;49182;50.788;7.318;2023-03-14T03:45:06;98475.81;;;10.79;72.89
43125;BME280;49182;50.788;7.318;2023-03-14T03:47:37;98454.25;;;10.76;72.58
43125;BME280;49182;50.788;7.318;2023-03-14T03:50:07;98452.69;;;10.81;72.40
43125;BME280;49182;50.788;7.318;2023-03-14T03:52:34;98445.41;;;10.83;72.33
43125;BME280;49182;50.788;7.318;2023-03-14T03:55:01;98447.41;;;10.81;72.26
43125;BME280;49182;50.788;7.318;2023-03-14T03:57:28;98405.91;;;10.75;71.83
43125;BME280;49182;50.788;7.318;2023-03-14T03:59:56;98423.78;;;10.73;72.14
43125;BME280;49182;50.788;7.318;2023-03-14T04:02:22;98431.44;;;10.89;71.50
43125;BME280;49182;50.788;7.318;2023-03-14T04:04:50;98435.31;;;10.93;71.42
43125;BME280;49182;50.788;7.318;2023-03-14T04:07:18;98424.28;;;10.83;70.69
43125;BME280;49182;50.788;7.318;2023-03-14T04:09:45;98411.00;;;10.77;70.90
43125;BME280;49182;50.788;7.318;2023-03-14T04:12:30;98441.81;;;10.91;70.88
43125;BME280;49182;50.788;7.318;2023-03-14T04:15:06;98409.63;;;10.81;71.09
43125;BME280;49182;50.788;7.318;2023-03-14T04:17:35;98448.22;;;11.03;70.31
43125;BME280;49182;50.788;7.318;2023-03-14T04:20:02;98441.13;;;11.04;70.63
43125;BME280;49182;50.788;7.318;2023-03-14T04:22:35;98435.00;;;11.03;71.03
43125;BME280;49182;50.788;7.318;2023-03-14T04:25:03;98424.53;;;10.88;70.78
43125;BME280;49182;50.788;7.318;2023-03-14T04:27:34;98443.25;;;10.93;71.06
43125;BME280;49182;50.788;7.318;2023-03-14T04:30:03;98425.72;;;10.86;70.84
43125;BME280;49182;50.788;7.318;2023-03-14T04:32:52;98428.47;;;10.99;70.95
43125;BME280;49182;50.788;7.318;2023-03-14T04:35:22;98412.56;;;10.92;71.13
43125;BME280;49182;50.788;7.318;2023-03-14T04:37:54;98424.63;;;11.02;70.66
43125;BME280;49182;50.788;7.318;2023-03-14T04:40:22;98433.19;;;11.04;71.44
43125;BME280;49182;50.788;7.318;2023-03-14T04:42:52;98400.41;;;10.91;70.71
43125;BME280;49182;50.788;7.318;2023-03-14T04:45:19;98420.59;;;11.06;71.30
43125;BME280;49182;50.788;7.318;2023-03-14T04:47:46;98410.63;;;11.01;70.71
43125;BME280;49182;50.788;7.318;2023-03-14T04:50:17;98412.72;;;11.12;70.83
43125;BME280;49182;50.788;7.318;2023-03-14T04:52:44;98399.34;;;10.92;70.56
43125;BME280;49182;50.788;7.318;2023-03-14T04:55:12;98370.47;;;10.84;72.02
43125;BME280;49182;50.788;7.318;2023-03-14T04:57:39;98402.75;;;11.08;73.92
43125;BME280;49182;50.788;7.318;2023-03-14T05:00:10;98393.59;;;11.04;75.80
43125;BME280;49182;50.788;7.318;2023-03-14T05:02:52;98394.09;;;10.92;77.95
43125;BME280;49182;50.788;7.318;2023-03-14T05:05:44;98393.34;;;10.77;78.94
43125;BME280;49182;50.788;7.318;2023-03-14T05:08:19;98387.19;;;10.70;79.22
43125;BME280;49182;50.788;7.318;2023-03-14T05:11:05;98352.28;;;10.26;81.98
43125;BME280;49182;50.788;7.318;2023-03-14T05:13:51;98389.41;;;10.45;82.50
43125;BME280;49182;50.788;7.318;2023-03-14T05:16:53;98380.34;;;10.33;82.53
43125;BME280;49182;50.788;7.318;2023-03-14T05:19:42;98388.16;;;10.41;81.08
43125;BME280;49182;50.788;7.318;2023-03-14T05:22:25;98352.41;;;10.18;81.38
43125;BME280;49182;50.788;7.318;2023-03-14T05:25:10;98377.28;;;10.30;81.57
43125;BME280;49182;50.788;7.318;2023-03-14T05:27:38;98378.34;;;10.35;81.27
43125;BME280;49182;50.788;7.318;2023-03-14T05:30:33;98314.06;;;10.00;80.69
43125;BME280;49182;50.788;7.318;2023-03-14T05:33:19;98370.13;;;10.24;81.51
43125;BME280;49182;50.788;7.318;2023-03-14T05:36:06;98374.19;;;10.26;80.94
43125;BME280;49182;50.788;7.318;2023-03-14T05:38:52;98365.47;;;10.26;80.32
43125;BME280;49182;50.788;7.318;2023-03-14T05:41:48;98352.19;;;10.19;78.36
43125;BME280;49182;50.788;7.318;2023-03-14T05:44:42;98360.75;;;10.21;79.85
43125;BME280;49182;50.788;7.318;2023-03-14T05:47:29;98369.09;;;10.25;80.20
43125;BME280;49182;50.788;7.318;2023-03-14T05:50:10;98368.09;;;10.26;80.01
43125;BME280;49182;50.788;7.318;2023-03-14T05:52:53;98373.38;;;10.26;80.44
43125;BME280;49182;50.788;7.318;2023-03-14T05:55:52;98368.50;;;10.23;79.40
43125;BME280;49182;50.788;7.318;2023-03-14T05:58:33;98371.72;;;10.25;79.83
43125;BME280;49182;50.788;7.318;2023-03-14T06:01:11;98374.38;;;10.25;80.30
43125;BME280;49182;50.788;7.318;2023-03-14T06:03:57;98376.41;;;10.23;80.05
43125;BME280;49182;50.788;7.318;2023-03-14T06:06:24;98343.59;;;10.10;80.13
43125;BME280;49182;50.788;7.318;2023-03-14T06:08:50;98362.22;;;10.24;79.46
43125;BME280;49182;50.788;7.318;2023-03-14T06:11:17;98351.03;;;10.22;78.68
43125;BME280;49182;50.788;7.318;2023-03-14T06:13:45;98361.25;;;10.31;78.78
43125;BME280;49182;50.788;7.318;2023-03-14T06:16:14;98327.50;;;10.05;79.26
43125;BME280;49182;50.788;7.318;2023-03-14T06:18:41;98361.63;;;10.28;78.96
43125;BME280;49182;50.788;7.318;2023-03-14T06:21:09;98365.84;;;10.23;79.50
43125;BME280;49182;50.788;7.318;2023-03-14T06:23:36;98354.97;;;10.32;80.06
43125;BME280;49182;50.788;7.318;2023-03-14T06:26:04;98359.75;;;10.22;81.34
43125;BME280;49182;50.788;7.318;2023-03-14T06:28:31;98336.59;;;10.18;81.44
43125;BME280;49182;50.788;7.318;2023-03-14T06:31:00;98353.22;;;10.18;82.11
43125;BME280;49182;50.788;7.318;2023-03-14T06:33:34;98352.84;;;10.21;81.43
43125;BME280;49182;50.788;7.318;2023-03-14T06:36:02;98363.78;;;10.18;81.69
43125;BME280;49182;50.788;7.318;2023-03-14T06:38:29;98349.56;;;10.19;82.14
43125;BME280;49182;50.788;7.318;2023-03-14T06:41:03;98338.41;;;10.17;82.22
43125;BME280;49182;50.788;7.318;2023-03-14T06:43:35;98341.06;;;10.17;81.49
43125;BME280;49182;50.788;7.318;2023-03-14T06:46:03;98341.28;;;10.22;81.24
43125;BME280;49182;50.788;7.318;2023-03-14T06:48:31;98352.66;;;10.23;81.51
43125;BME280;49182;50.788;7.318;2023-03-14T06:50:59;98348.75;;;10.19;81.44
43125;BME280;49182;50.788;7.318;2023-03-14T06:53:26;98352.66;;;10.23;81.04
43125;BME280;49182;50.788;7.318;2023-03-14T06:55:53;98345.75;;;10.22;81.57
43125;BME280;49182;50.788;7.318;2023-03-14T06:58:21;98358.19;;;10.28;80.31
43125;BME280;49182;50.788;7.318;2023-03-14T07:00:48;98357.78;;;10.31;80.22
43125;BME280;49182;50.788;7.318;2023-03-14T07:03:21;98359.25;;;10.33;79.45
43125;BME280;49182;50.788;7.318;2023-03-14T07:05:49;98358.69;;;10.38;79.66
43125;BME280;49182;50.788;7.318;2023-03-14T07:08:17;98360.09;;;10.55;79.56
43125;BME280;49182;50.788;7.318;2023-03-14T07:10:44;98369.81;;;10.54;79.29
43125;BME280;49182;50.788;7.318;2023-03-14T07:13:11;98361.44;;;10.51;79.46
43125;BME280;49182;50.788;7.318;2023-03-14T07:15:49;98372.53;;;10.61;79.28
43125;BME280;49182;50.788;7.318;2023-03-14T07:18:15;98343.66;;;10.38;79.18
43125;BME280;49182;50.788;7.318;2023-03-14T07:20:44;98383.56;;;10.71;78.96
43125;BME280;49182;50.788;7.318;2023-03-14T07:23:13;98348.13;;;10.59;78.53
43125;BME280;49182;50.788;7.318;2023-03-14T07:25:47;98373.38;;;10.68;79.22
43125;BME280;49182;50.788;7.318;2023-03-14T07:28:15;98385.88;;;10.81;78.84
43125;BME280;49182;50.788;7.318;2023-03-14T07:30:45;98384.91;;;10.88;78.90
43125;BME280;49182;50.788;7.318;2023-03-14T07:33:17;98390.66;;;10.92;78.30
43125;BME280;49182;50.788;7.318;2023-03-14T07:35:44;98385.38;;;10.99;78.55
43125;BME280;49182;50.788;7.318;2023-03-14T07:38:11;98388.00;;;10.92;77.57
43125;BME280;49182;50.788;7.318;2023-03-14T07:40:50;98382.16;;;10.97;77.77
43125;BME280;49182;50.788;7.318;2023-03-14T07:43:17;98373.00;;;10.99;76.78
43125;BME280;49182;50.788;7.318;2023-03-14T07:45:48;98388.00;;;11.20;77.77
43125;BME280;49182;50.788;7.318;2023-03-14T07:48:17;98391.66;;;11.19;77.06
43125;BME280;49182;50.788;7.318;2023-03-14T07:50:43;98379.31;;;11.26;77.72
43125;BME280;49182;50.788;7.318;2023-03-14T07:53:10;98340.78;;;11.04;76.30
43125;BME280;49182;50.788;7.318;2023-03-14T07:55:39;98367.59;;;11.35;76.63
43125;BME280;49182;50.788;7.318;2023-03-14T07:58:08;98382.72;;;11.48;76.42
43125;BME280;49182;50.788;7.318;2023-03-14T08:00:34;98385.75;;;11.51;75.78
43125;BME280;49182;50.788;7.318;2023-03-14T08:03:01;98392.31;;;11.62;76.54
43125;BME280;49182;50.788;7.318;2023-03-14T08:05:28;98375.22;;;11.58;76.21
43125;BME280;49182;50.788;7.318;2023-03-14T08:07:55;98387.44;;;11.59;75.14
43125;BME280;49182;50.788;7.318;2023-03-14T08:10:22;98388.69;;;11.69;75.24
43125;BME280;49182;50.788;7.318;2023-03-14T08:12:48;98393.44;;;11.74;75.31
43125;BME280;49182;50.788;7.318;2023-03-14T08:15:16;98394.31;;;11.88;75.38
43125;BME280;49182;50.788;7.318;2023-03-14T08:17:43;98335.56;;;11.51;75.52
43125;BME280;49182;50.788;7.318;2023-03-14T08:20:11;98387.66;;;12.05;75.38
43125;BME280;49182;50.788;7.318;2023-03-14T08:22:37;98393.75;;;12.05;75.22
43125;BME280;49182;50.788;7.318;2023-03-14T08:25:05;98389.72;;;12.09;73.93
43125;BME280;49182;50.788;7.318;2023-03-14T08:27:32;98391.16;;;12.19;73.46
43125;BME280;49182;50.788;7.318;2023-03-14T08:29:58;98395.69;;;12.31;73.15
43125;BME280;49182;50.788;7.318;2023-03-14T08:32:26;98381.84;;;12.36;72.87
43125;BME280;49182;50.788;7.318;2023-03-14T08:34:53;98400.38;;;12.36;72.95
43125;BME280;49182;50.788;7.318;2023-03-14T08:37:20;98390.22;;;12.39;70.70
43125;BME280;49182;50.788;7.318;2023-03-14T08:39:53;98396.16;;;12.61;72.28
43125;BME280;49182;50.788;7.318;2023-03-14T08:42:20;98397.59;;;12.70;71.90
43125;BME280;49182;50.788;7.318;2023-03-14T08:44:47;98398.00;;;12.67;71.64
43125;BME280;49182;50.788;7.318;2023-03-14T08:47:13;98398.19;;;12.72;71.95
43125;BME280;49182;50.788;7.318;2023-03-14T08:49:41;98399.81;;;12.67;71.14
43125;BME280;49182;50.788;7.318;2023-03-14T08:52:08;98401.66;;;12.66;71.71
43125;BME280;49182;50.788;7.318;2023-03-14T08:54:35;98381.28;;;12.67;70.71
43125;BME280;49182;50.788;7.318;2023-03-14T08:57:01;98393.94;;;12.71;69.67
43125;BME280;49182;50.788;7.318;2023-03-14T08:59:28;98393.72;;;12.86;69.71
43125;BME280;49182;50.788;7.318;2023-03-14T09:01:54;98405.34;;;12.85;69.25
43125;BME280;49182;50.788;7.318;2023-03-14T09:04:21;98393.91;;;12.91;70.22
43125;BME280;49182;50.788;7.318;2023-03-14T09:06:49;98407.16;;;12.91;69.90
43125;BME280;49182;50.788;7.318;2023-03-14T09:09:16;98390.06;;;12.87;69.61
43125;BME280;49182;50.788;7.318;2023-03-14T09:11:42;98397.59;;;13.03;69.40
43125;BME280;49182;50.788;7.318;2023-03-14T09:14:09;98412.47;;;13.04;68.53
43125;BME280;49182;50.788;7.318;2023-03-14T09:16:36;98405.53;;;13.03;68.96
43125;BME280;49182;50.788;7.318;2023-03-14T09:19:03;98419.00;;;12.88;70.13
43125;BME280;49182;50.788;7.318;2023-03-14T09:21:29;98383.31;;;12.51;70.54
43125;BME280;49182;50.788;7.318;2023-03-14T09:23:57;98428.16;;;12.86;71.97
43125;BME280;49182;50.788;7.318;2023-03-14T09:26:24;98433.25;;;12.87;72.50
43125;BME280;49182;50.788;7.318;2023-03-14T09:28:50;98417.56;;;12.79;73.17
43125;BME280;49182;50.788;7.318;2023-03-14T09:31:17;98453.97;;;12.57;75.41
43125;BME280;49182;50.788;7.318;2023-03-14T09:33:44;98473.94;;;12.60;78.59
43125;BME280;49182;50.788;7.318;2023-03-14T09:36:10;98477.72;;;12.31;81.36
43125;BME280;49182;50.788;7.318;2023-03-14T09:38:37;98477.03;;;12.16;84.45
43125;BME280;49182;50.788;7.318;2023-03-14T09:41:13;98470.72;;;12.17;84.13
43125;BME280;49182;50.788;7.318;2023-03-14T09:43:41;98481.94;;;12.19;84.33
43125;BME280;49182;50.788;7.318;2023-03-14T09:46:09;98370.16;;;11.22;86.50
43125;BME280;49182;50.788;7.318;2023-03-14T09:48:37;98487.28;;;11.91;87.87
43125;BME280;49182;50.788;7.318;2023-03-14T09:51:06;98487.09;;;11.93;87.49
43125;BME280;49182;50.788;7.318;2023-03-14T09:53:40;98484.41;;;11.86;88.69
43125;BME280;49182;50.788;7.318;2023-03-14T09:56:13;98496.72;;;11.72;89.13
43125;BME280;49182;50.788;7.318;2023-03-14T09:58:43;98498.81;;;11.77;89.19
43125;BME280;49182;50.788;7.318;2023-03-14T10:01:15;98500.38;;;11.71;89.18
43125;BME280;49182;50.788;7.318;2023-03-14T10:03:44;98502.19;;;11.71;89.71
43125;BME280;49182;50.788;7.318;2023-03-14T10:06:12;98509.06;;;11.65;90.48
43125;BME280;49182;50.788;7.318;2023-03-14T10:08:39;98511.03;;;11.57;90.17
43125;BME280;49182;50.788;7.318;2023-03-14T10:11:09;98541.75;;;11.36;90.21
43125;BME280;49182;50.788;7.318;2023-03-14T10:13:47;98626.63;;;11.27;90.14
43125;BME280;49182;50.788;7.318;2023-03-14T10:16:14;98650.03;;;10.79;84.84
43125;BME280;49182;50.788;7.318;2023-03-14T10:18:44;98658.50;;;10.45;86.77
43125;BME280;49182;50.788;7.318;2023-03-14T10:21:20;98658.69;;;10.06;86.44
43125;BME280;49182;50.788;7.318;2023-03-14T10:23:47;98690.44;;;10.13;86.45
43125;BME280;49182;50.788;7.318;2023-03-14T10:26:16;98711.56;;;9.90;87.13
43125;BME280;49182;50.788;7.318;2023-03-14T10:28:47;98706.94;;;9.69;88.23
43125;BME280;49182;50.788;7.318;2023-03-14T10:31:15;98721.59;;;9.41;87.91
43125;BME280;49182;50.788;7.318;2023-03-14T10:33:42;98739.47;;;9.23;89.99
43125;BME280;49182;50.788;7.318;2023-03-14T10:36:17;98739.66;;;9.21;89.47
43125;BME280;49182;50.788;7.318;2023-03-14T10:38:45;98755.28;;;9.23;90.81
43125;BME280;49182;50.788;7.318;2023-03-14T10:41:16;98772.28;;;9.12;91.61
43125;BME280;49182;50.788;7.318;2023-03-14T10:43:44;98774.72;;;9.14;90.87
43125;BME280;49182;50.788;7.318;2023-03-14T10:46:15;98767.56;;;9.00;92.53
43125;BME280;49182;50.788;7.318;2023-03-14T10:49:05;98789.91;;;9.04;91.87
43125;BME280;49182;50.788;7.318;2023-03-14T10:51:32;98796.00;;;8.96;91.61
43125;BME280;49182;50.788;7.318;2023-03-14T10:54:00;98801.63;;;8.93;91.14
43125;BME280;49182;50.788;7.318;2023-03-14T10:56:34;98807.19;;;8.98;91.17
43125;BME280;49182;50.788;7.318;2023-03-14T10:59:03;98834.00;;;9.02;88.66
43125;BME280;49182;50.788;7.318;2023-03-14T11:01:38;98823.00;;;8.90;87.94
43125;BME280;49182;50.788;7.318;2023-03-14T11:04:19;98803.78;;;8.65;88.22
43125;BME280;49182;50.788;7.318;2023-03-14T11:06:48;98827.31;;;8.75;90.13
43125;BME280;49182;50.788;7.318;2023-03-14T11:09:21;98775.22;;;8.38;90.88
43125;BME280;49182;50.788;7.318;2023-03-14T11:11:50;98832.41;;;8.52;91.22
43125;BME280;49182;50.788;7.318;2023-03-14T11:14:24;98845.91;;;8.57;92.04
43125;BME280;49182;50.788;7.318;2023-03-14T11:16:56;98863.16;;;8.60;91.85
43125;BME280;49182;50.788;7.318;2023-03-14T11:19:43;98861.50;;;8.59;91.35
43125;BME280;49182;50.788;7.318;2023-03-14T11:22:24;98860.22;;;8.63;90.20
43125;BME280;49182;50.788;7.318;2023-03-14T11:25:06;98887.66;;;8.60;91.83
43125;BME280;49182;50.788;7.318;2023-03-14T11:27:41;98877.47;;;8.33;92.65
43125;BME280;49182;50.788;7.318;2023-03-14T11:30:17;98892.25;;;8.42;92.88
43125;BME280;49182;50.788;7.318;2023-03-14T11:32:46;98892.75;;;8.37;92.71
43125;BME280;49182;50.788;7.318;2023-03-14T11:35:20;98902.75;;;8.34;92.32
43125;BME280;49182;50.788;7.318;2023-03-14T11:37:53;98892.25;;;8.42;93.43
43125;BME280;49182;50.788;7.318;2023-03-14T11:40:23;98912.47;;;8.41;93.10
43125;BME280;49182;50.788;7.318;2023-03-14T11:42:56;98907.72;;;8.45;93.25
43125;BME280;49182;50.788;7.318;2023-03-14T11:45:32;98913.16;;;8.51;92.17
43125;BME280;49182;50.788;7.318;2023-03-14T11:48:22;98896.69;;;8.41;92.46
43125;BME280;49182;50.788;7.318;2023-03-14T11:50:52;98925.63;;;8.66;92.96
43125;BME280;49182;50.788;7.318;2023-03-14T11:53:29;98924.34;;;8.70;93.67
43125;BME280;49182;50.788;7.318;2023-03-14T11:56:01;98906.56;;;8.64;91.23
43125;BME280;49182;50.788;7.318;2023-03-14T11:58:31;98923.66;;;8.51;90.29
43125;BME280;49182;50.788;7.318;2023-03-14T12:01:02;98958.38;;;8.79;90.25
43125;BME280;49182;50.788;7.318;2023-03-14T12:03:36;98951.94;;;8.90;90.93
43125;BME280;49182;50.788;7.318;2023-03-14T12:06:13;98958.03;;;9.15;88.37
43125;BME280;49182;50.788;7.318;2023-03-14T12:08:47;98965.59;;;9.26;87.10
43125;BME280;49182;50.788;7.318;2023-03-14T12:11:20;98950.44;;;9.20;87.22
43125;BME280;49182;50.788;7.318;2023-03-14T12:13:49;99017.28;;;8.95;85.31
43125;BME280;49182;50.788;7.318;2023-03-14T12:16:31;99046.59;;;9.24;84.90
43125;BME280;49182;50.788;7.318;2023-03-14T12:19:14;99052.97;;;8.97;84.01
43125;BME280;49182;50.788;7.318;2023-03-14T12:21:47;99068.50;;;8.58;86.21
43125;BME280;49182;50.788;7.318;2023-03-14T12:24:18;99071.00;;;8.68;84.67
43125;BME280;49182;50.788;7.318;2023-03-14T12:26:53;99058.66;;;8.68;83.65
43125;BME280;49182;50.788;7.318;2023-03-14T12:29:20;99067.41;;;8.69;84.54
43125;BME280;49182;50.788;7.318;2023-03-14T12:31:48;99056.25;;;8.33;84.89
43125;BME280;49182;50.788;7.318;2023-03-14T12:34:27;99079.78;;;8.42;83.21
43125;BME280;49182;50.788;7.318;2023-03-14T12:36:59;99102.34;;;8.53;84.33
43125;BME280;49182;50.788;7.318;2023-03-14T12:39:45;99108.72;;;8.42;85.65
43125;BME280;49182;50.788;7.318;2023-03-14T12:42:16;99105.78;;;8.20;87.00
43125;BME280;49182;50.788;7.318;2023-03-14T12:44:47;99118.88;;;8.11;87.34
43125;BME280;49182;50.788;7.318;2023-03-14T12:47:45;99138.38;;;8.01;87.64
43125;BME280;49182;50.788;7.318;2023-03-14T12:50:19;99162.03;;;8.01;88.58
43125;BME280;49182;50.788;7.318;2023-03-14T12:53:09;99157.44;;;7.85;89.58
43125;BME280;49182;50.788;7.318;2023-03-14T12:55:45;99180.69;;;7.98;87.89
43125;BME280;49182;50.788;7.318;2023-03-14T12:58:17;99155.97;;;7.83;87.84
43125;BME280;49182;50.788;7.318;2023-03-14T13:00:51;99174.19;;;7.84;87.72
43125;BME280;49182;50.788;7.318;2023-03-14T13:03:24;99199.78;;;8.00;87.89
43125;BME280;49182;50.788;7.318;2023-03-14T13:05:52;99201.88;;;7.96;87.82
43125;BME280;49182;50.788;7.318;2023-03-14T13:08:33;99207.06;;;8.06;87.47
43125;BME280;49182;50.788;7.318;2023-03-14T13:11:01;99213.34;;;8.13;87.57
43125;BME280;49182;50.788;7.318;2023-03-14T13:13:29;99212.06;;;8.17;86.16
43125;BME280;49182;50.788;7.318;2023-03-14T13:15:57;99224.44;;;8.25;85.99
43125;BME280;49182;50.788;7.318;2023-03-14T13:18:28;99229.72;;;8.25;83.80
43125;BME280;49182;50.788;7.318;2023-03-14T13:20:59;99220.56;;;8.11;83.67
43125;BME280;49182;50.788;7.318;2023-03-14T13:23:30;99240.00;;;8.18;83.87